Time;durP1;ratioP1;P1;durP2;ratioP2;P2;SDS_P1;SDS_P2;PMS_P1;PMS_P2;Temp;Humidity;BMP_temperature;BMP_pressure;BME280_temperature;BME280_humidity;BME280_pressure;Samples;Min_cycle;Max_cycle;Signal;HPM_P1;HPM_P2
2021/07/21 00:00:30;;;;;;;10.43;6.80;;;;;;;22.69;71.66;99741.83;1717601;83;21537;-74
2021/07/21 00:02:57;;;;;;;10.60;6.72;;;;;;;22.71;71.66;99747.81;1707448;82;21102;-72
2021/07/21 00:05:25;;;;;;;9.95;6.75;;;;;;;22.70;71.81;99749.37;1704430;83;21079;-77
2021/07/21 00:07:55;;;;;;;9.75;6.95;;;;;;;22.68;71.89;99746.91;1712260;82;21409;-77
2021/07/21 00:10:24;;;;;;;10.32;7.03;;;;;;;22.66;72.05;99750.83;1716901;82;21288;-78
2021/07/21 00:15:38;;;;;;;13.48;7.17;;;;;;;22.58;72.06;99744.70;1699488;82;21449;-77
2021/07/21 00:18:20;;;;;;;11.75;7.40;;;;;;;22.56;71.83;99744.61;1723152;82;21077;-75
2021/07/21 00:20:47;;;;;;;12.43;7.17;;;;;;;22.56;72.12;99747.28;1719073;82;21557;-75
2021/07/21 00:23:16;;;;;;;10.05;6.55;;;;;;;22.62;72.30;99739.20;1719565;82;21116;-76
2021/07/21 00:25:43;;;;;;;12.37;7.87;;;;;;;22.72;71.94;99736.56;1719401;82;21053;-76
2021/07/21 00:28:09;;;;;;;10.20;7.33;;;;;;;22.76;71.76;99735.08;1718626;82;21535;-77
2021/07/21 00:30:36;;;;;;;15.98;7.85;;;;;;;22.80;71.73;99738.98;1721629;82;21039;-77
2021/07/21 00:33:03;;;;;;;12.90;7.62;;;;;;;22.82;71.58;99739.58;1707704;82;21525;-75
2021/07/21 00:35:29;;;;;;;12.68;7.62;;;;;;;22.85;71.36;99745.84;1696127;83;22207;-75
2021/07/21 00:37:56;;;;;;;8.88;6.12;;;;;;;22.85;71.31;99744.50;1696672;82;21094;-77
2021/07/21 00:40:23;;;;;;;11.78;7.35;;;;;;;22.85;71.28;99749.03;1703506;82;21046;-77
2021/07/21 00:42:50;;;;;;;11.85;7.40;;;;;;;22.82;71.39;99745.75;1701356;83;21050;-75
2021/07/21 00:45:16;;;;;;;12.35;7.03;;;;;;;22.82;71.33;99748.95;1710301;82;21059;-77
2021/07/21 00:47:43;;;;;;;10.05;7.22;;;;;;;22.76;71.52;99742.63;1706233;82;21758;-74
2021/07/21 00:50:10;;;;;;;11.73;7.25;;;;;;;22.73;71.84;99747.08;1712298;82;21542;-74
2021/07/21 00:52:38;;;;;;;12.58;7.50;;;;;;;22.72;72.05;99743.27;1704772;82;21051;-75
2021/07/21 00:55:07;;;;;;;10.93;6.90;;;;;;;22.71;71.88;99739.77;1716545;83;21380;-72
2021/07/21 00:57:34;;;;;;;16.07;8.05;;;;;;;22.73;71.90;99734.16;1683651;83;21046;-76
2021/07/21 01:00:00;;;;;;;10.70;7.97;;;;;;;22.76;71.57;99731.89;1696210;83;21192;-76
2021/07/21 01:02:28;;;;;;;12.33;6.65;;;;;;;22.78;71.53;99724.97;1715699;82;21047;-76
2021/07/21 01:04:54;;;;;;;17.75;8.23;;;;;;;22.75;71.63;99719.52;1707780;82;21542;-77
2021/07/21 01:07:20;;;;;;;10.65;7.92;;;;;;;22.74;71.60;99727.24;1700963;83;21046;-75
2021/07/21 01:09:47;;;;;;;13.08;7.25;;;;;;;22.74;71.39;99720.54;1712092;82;21058;-76
2021/07/21 01:12:33;;;;;;;11.65;7.75;;;;;;;22.74;71.31;99720.54;1697258;82;21050;-74
2021/07/21 01:15:17;;;;;;;11.28;7.10;;;;;;;22.75;71.40;99717.36;1703280;83;21085;-76
2021/07/21 01:17:52;;;;;;;12.13;8.20;;;;;;;22.77;71.52;99717.42;1722722;81;21048;-75
2021/07/21 01:20:48;;;;;;;10.88;8.03;;;;;;;22.77;71.54;99716.09;1711239;81;21124;-76
2021/07/21 01:23:31;;;;;;;12.70;8.48;;;;;;;22.71;71.63;99712.95;1649318;83;21050;-75
2021/07/21 01:26:10;;;;;;;15.32;8.93;;;;;;;22.69;71.75;99714.20;1710444;83;21147;-77
2021/07/21 01:28:41;;;;;;;13.28;9.08;;;;;;;22.69;71.64;99713.67;1688469;82;21054;-76
2021/07/21 01:31:10;;;;;;;12.13;8.95;;;;;;;22.69;71.31;99719.56;1720017;83;22131;-73
2021/07/21 01:33:38;;;;;;;15.25;8.78;;;;;;;22.63;71.46;99723.42;1664378;82;21086;-76
2021/07/21 01:36:15;;;;;;;16.10;9.23;;;;;;;22.62;71.66;99715.59;1717952;83;21614;-76
2021/07/21 01:38:50;;;;;;;13.83;8.88;;;;;;;22.69;71.72;99711.52;1687787;83;21089;-76
2021/07/21 01:41:23;;;;;;;14.03;9.48;;;;;;;22.70;71.84;99704.59;1712787;81;22088;-76
2021/07/21 01:43:53;;;;;;;15.23;8.60;;;;;;;22.69;71.72;99713.67;1715417;83;21786;-77
2021/07/21 01:46:22;;;;;;;13.10;8.73;;;;;;;22.67;71.62;99708.24;1718202;82;21070;-76
2021/07/21 01:48:49;;;;;;;11.88;8.25;;;;;;;22.66;71.74;99710.08;1724899;81;21011;-78
2021/07/21 01:51:16;;;;;;;14.68;9.40;;;;;;;22.69;72.04;99706.16;1665685;84;21090;-77
2021/07/21 01:53:43;;;;;;;16.57;8.33;;;;;;;22.73;71.89;99702.83;1722038;81;21070;-76
2021/07/21 01:56:12;;;;;;;17.75;9.55;;;;;;;22.79;71.82;99695.75;1719879;82;21051;-76
2021/07/21 01:58:40;;;;;;;13.43;9.15;;;;;;;22.83;71.55;99691.61;1706591;81;21015;-77
2021/07/21 02:01:10;;;;;;;18.40;10.00;;;;;;;22.88;71.30;99690.92;1721379;83;21092;-76
2021/07/21 02:03:40;;;;;;;14.55;9.50;;;;;;;22.92;71.15;99695.63;1704947;82;21118;-77
2021/07/21 02:06:08;;;;;;;13.08;9.65;;;;;;;22.95;71.03;99695.73;1704335;82;21133;-76
2021/07/21 02:08:37;;;;;;;13.30;9.43;;;;;;;22.95;70.97;99697.88;1697156;82;21282;-76
2021/07/21 02:11:06;;;;;;;16.00;9.95;;;;;;;22.94;70.83;99701.59;1702236;82;21054;-77
2021/07/21 02:13:34;;;;;;;17.15;11.08;;;;;;;22.88;70.90;99705.17;1695260;82;21024;-74
2021/07/21 02:16:06;;;;;;;17.45;10.03;;;;;;;22.84;71.16;99711.20;1705840;82;21152;-77
2021/07/21 02:18:32;;;;;;;15.25;10.72;;;;;;;22.84;71.44;99709.85;1707414;82;21069;-70
2021/07/21 02:21:03;;;;;;;15.68;10.68;;;;;;;22.84;71.73;99705.83;1683888;82;21062;-75
2021/07/21 02:23:33;;;;;;;15.43;10.72;;;;;;;22.85;72.00;99708.80;1693494;82;21049;-75
2021/07/21 02:26:18;;;;;;;18.70;10.48;;;;;;;22.87;72.19;99702.71;1699824;83;21043;-78
2021/07/21 02:28:46;;;;;;;18.27;11.55;;;;;;;22.87;72.35;99704.05;1683951;83;21052;-77
2021/07/21 02:31:31;;;;;;;15.15;10.60;;;;;;;22.87;72.33;99708.89;1702684;83;21072;-77
2021/07/21 02:34:03;;;;;;;16.45;11.00;;;;;;;22.89;72.39;99694.73;1704780;82;21098;-77
2021/07/21 02:36:33;;;;;;;16.42;11.05;;;;;;;22.92;72.51;99703.68;1689728;83;21091;-77
2021/07/21 02:39:02;;;;;;;17.48;10.98;;;;;;;22.95;72.47;99699.22;1690059;83;21074;-72
2021/07/21 02:41:28;;;;;;;14.43;10.93;;;;;;;22.98;72.64;99704.65;1691737;83;21133;-77
2021/07/21 02:43:55;;;;;;;15.48;10.98;;;;;;;23.00;72.71;99702.06;1702262;82;21533;-78
2021/07/21 02:46:22;;;;;;;17.17;11.68;;;;;;;23.03;72.75;99705.34;1700459;82;21122;-78
2021/07/21 02:48:48;;;;;;;15.95;11.57;;;;;;;23.08;72.73;99709.05;1705366;82;21141;-77
2021/07/21 02:51:28;;;;;;;16.42;10.45;;;;;;;23.14;72.55;99709.48;1700057;83;20988;-77
2021/07/21 02:54:19;;;;;;;17.17;11.48;;;;;;;23.14;72.49;99707.33;1696855;83;21070;-76
2021/07/21 02:56:51;;;;;;;15.75;10.85;;;;;;;23.13;72.52;99706.52;1692595;83;21572;-76
2021/07/21 02:59:19;;;;;;;23.90;11.03;;;;;;;23.12;72.56;99707.55;1697720;82;21026;-75
2021/07/21 03:01:48;;;;;;;16.27;11.28;;;;;;;23.13;72.57;99711.88;1701609;82;20992;-75
2021/07/21 03:04:21;;;;;;;13.62;10.80;;;;;;;23.18;72.50;99709.36;1705526;82;21541;-76
2021/07/21 03:06:50;;;;;;;15.75;10.93;;;;;;;23.19;71.73;99712.84;1702750;82;21830;-75
2021/07/21 03:09:20;;;;;;;20.97;12.33;;;;;;;23.15;71.31;99718.37;1673478;83;21065;-70
2021/07/21 03:11:54;;;;;;;18.20;11.80;;;;;;;23.11;71.45;99728.70;1701576;82;21047;-71
2021/07/21 03:14:23;;;;;;;18.37;11.30;;;;;;;23.07;71.59;99729.39;1698017;82;21071;-77
2021/07/21 03:16:52;;;;;;;17.57;12.58;;;;;;;23.03;71.97;99733.50;1693013;84;21054;-77
2021/07/21 03:19:25;;;;;;;17.70;11.78;;;;;;;23.04;71.77;99745.89;1688235;82;21612;-76
2021/07/21 03:21:55;;;;;;;17.45;11.33;;;;;;;23.05;72.00;99751.05;1702806;83;21034;-76
2021/07/21 03:24:25;;;;;;;17.27;11.33;;;;;;;23.06;72.16;99756.72;1701542;82;21086;-75
2021/07/21 03:26:57;;;;;;;19.98;13.53;;;;;;;22.99;71.42;99746.02;1689028;83;21066;-70
2021/07/21 03:29:27;;;;;;;22.45;14.07;;;;;;;22.90;69.56;99744.66;1701956;82;21090;-75
2021/07/21 03:31:55;;;;;;;23.25;13.30;;;;;;;22.77;68.63;99742.91;1625758;86;21112;-77
2021/07/21 03:34:22;;;;;;;26.15;13.32;;;;;;;22.62;68.26;99743.75;1700741;82;21285;-77
2021/07/21 03:36:53;;;;;;;25.60;14.25;;;;;;;22.50;68.81;99747.64;1701978;82;21049;-77
2021/07/21 03:39:21;;;;;;;23.10;13.50;;;;;;;22.45;68.44;99752.84;1691900;83;21506;-77
2021/07/21 03:41:50;;;;;;;20.52;13.68;;;;;;;22.38;68.68;99754.22;1706728;82;21648;-76
2021/07/21 03:44:21;;;;;;;23.40;15.30;;;;;;;22.32;68.78;99755.07;1701808;82;21961;-72
2021/07/21 03:46:48;;;;;;;21.93;14.53;;;;;;;22.23;69.25;99756.34;1690533;83;21585;-77
2021/07/21 03:49:18;;;;;;;20.25;14.78;;;;;;;22.14;69.66;99760.29;1705537;82;21553;-75
2021/07/21 03:51:49;;;;;;;25.92;13.95;;;;;;;22.11;69.90;99758.03;1681115;83;21051;-76
2021/07/21 03:54:34;;;;;;;25.25;16.37;;;;;;;22.10;70.12;99759.09;1682825;83;21043;-71
2021/07/21 03:57:08;;;;;;;21.62;14.00;;;;;;;22.06;70.41;99758.17;1679120;82;21998;-76
2021/07/21 03:59:38;;;;;;;24.82;16.67;;;;;;;22.00;70.43;99757.67;1692804;83;21034;-77
2021/07/21 04:02:07;;;;;;;24.27;15.85;;;;;;;21.94;70.61;99764.40;1700281;83;21039;-76
2021/07/21 04:04:34;;;;;;;22.30;14.47;;;;;;;21.89;70.89;99757.84;1703673;82;21790;-73
2021/07/21 04:07:03;;;;;;;25.02;13.93;;;;;;;21.92;70.82;99757.91;1700028;83;21047;-76
2021/07/21 04:09:38;;;;;;;29.93;15.47;;;;;;;21.95;70.94;99749.98;1697873;83;21788;-75
2021/07/21 04:12:08;;;;;;;24.25;14.50;;;;;;;21.93;70.71;99758.75;1707797;83;21032;-73
2021/07/21 04:14:39;;;;;;;22.35;15.08;;;;;;;21.85;70.98;99753.11;1689768;83;21129;-76
2021/07/21 04:17:19;;;;;;;31.80;15.18;;;;;;;21.80;71.28;99759.62;1700709;82;21029;-75
2021/07/21 04:19:47;;;;;;;30.10;15.45;;;;;;;21.78;71.07;99758.48;1698206;82;21081;-74
2021/07/21 04:22:13;;;;;;;27.30;14.23;;;;;;;21.79;70.88;99758.81;1705810;82;21820;-76
2021/07/21 04:24:45;;;;;;;20.25;13.60;;;;;;;21.81;70.89;99762.61;1708176;82;21071;-71
2021/07/21 04:27:12;;;;;;;24.25;14.15;;;;;;;21.80;70.65;99763.11;1726576;82;21000;-69
2021/07/21 04:29:41;;;;;;;19.42;13.60;;;;;;;21.76;70.57;99756.55;1694330;82;20980;-69
2021/07/21 04:32:09;;;;;;;19.82;13.35;;;;;;;21.72;70.94;99758.02;1704071;82;21042;-75
2021/07/21 04:34:37;;;;;;;20.05;13.80;;;;;;;21.73;70.62;99749.45;1712094;82;21181;-75
2021/07/21 04:37:04;;;;;;;22.85;12.55;;;;;;;21.75;70.70;99756.23;1709641;83;21027;-74
2021/07/21 04:39:32;;;;;;;24.80;14.87;;;;;;;21.78;70.57;99760.36;1699433;82;21059;-76
2021/07/21 04:42:04;;;;;;;22.30;14.58;;;;;;;21.79;70.67;99757.99;1683128;82;21015;-76
2021/07/21 04:44:32;;;;;;;29.15;16.00;;;;;;;21.75;70.81;99756.75;1704641;82;21039;-73
2021/07/21 04:47:00;;;;;;;26.75;15.40;;;;;;;21.72;71.04;99756.68;1709910;82;21096;-76
2021/07/21 04:49:28;;;;;;;33.83;18.12;;;;;;;21.73;71.29;99763.66;1710103;82;21020;-77
2021/07/21 04:51:59;;;;;;;27.22;15.78;;;;;;;21.77;71.14;99766.23;1703551;82;21022;-72
2021/07/21 04:54:28;;;;;;;25.50;16.02;;;;;;;21.78;70.91;99763.03;1695223;82;21114;-72
2021/07/21 04:56:57;;;;;;;19.20;13.60;;;;;;;21.75;70.81;99774.16;1701017;82;21082;-75
2021/07/21 04:59:26;;;;;;;17.65;12.45;;;;;;;21.73;70.77;99775.70;1705346;81;21058;-76
2021/07/21 05:01:52;;;;;;;19.95;13.53;;;;;;;21.63;70.99;99772.13;1696884;83;21031;-76
2021/07/21 05:04:19;;;;;;;21.20;12.78;;;;;;;21.60;70.98;99769.89;1707435;82;21031;-74
2021/07/21 05:06:52;;;;;;;20.48;13.30;;;;;;;21.60;71.28;99779.76;1696412;82;22351;-77
2021/07/21 05:09:19;;;;;;;44.03;15.80;;;;;;;21.63;70.94;99782.02;1697197;82;21062;-76
2021/07/21 05:11:48;;;;;;;19.95;12.60;;;;;;;21.63;70.97;99785.52;1700917;83;21779;-73
2021/07/21 05:14:14;;;;;;;19.48;12.60;;;;;;;21.63;71.10;99790.05;1694712;82;21063;-76
2021/07/21 05:16:45;;;;;;;18.12;11.83;;;;;;;21.73;71.09;99801.67;1706527;83;21493;-76
2021/07/21 05:19:13;;;;;;;16.52;11.40;;;;;;;21.79;71.04;99793.62;1696358;83;21129;-76
2021/07/21 05:23:57;;;;;;;18.02;11.57;;;;;;;21.88;69.38;99799.56;1871266;74;22610;-63
2021/07/21 05:26:24;;;;;;;15.85;9.25;;;;;;;21.86;69.19;99806.46;1837510;77;21054;-68
2021/07/21 05:29:04;;;;;;;17.00;9.58;;;;;;;21.88;67.92;99800.90;1831916;76;21225;-68
2021/07/21 05:31:42;;;;;;;13.95;10.05;;;;;;;21.93;68.56;99805.10;1792543;78;21035;-71
2021/07/21 05:34:20;;;;;;;14.98;9.73;;;;;;;22.04;68.25;99807.12;1840355;76;21511;-66
2021/07/21 05:36:48;;;;;;;13.80;8.90;;;;;;;22.08;66.86;99802.98;1844871;75;21036;-67
2021/07/21 05:39:19;;;;;;;15.18;9.55;;;;;;;22.10;67.33;99805.97;1851288;75;21018;-67
2021/07/21 05:41:46;;;;;;;13.20;8.53;;;;;;;22.08;66.39;99802.98;1791490;78;21001;-69
2021/07/21 05:44:13;;;;;;;12.53;8.28;;;;;;;22.11;66.49;99800.91;1835576;75;21040;-72
2021/07/21 05:46:41;;;;;;;13.20;9.13;;;;;;;22.18;66.55;99804.39;1831591;77;20981;-67
2021/07/21 05:49:08;;;;;;;14.15;8.93;;;;;;;22.27;65.50;99804.44;1817104;77;21049;-64
2021/07/21 05:51:36;;;;;;;13.28;8.08;;;;;;;22.28;65.80;99811.98;1845116;77;21509;-78
2021/07/21 05:54:04;;;;;;;13.60;9.08;;;;;;;22.29;65.79;99816.31;1858331;75;21831;-70
2021/07/21 05:56:31;;;;;;;14.03;7.45;;;;;;;22.35;66.39;99822.17;1841381;75;21076;-72
2021/07/21 05:58:59;;;;;;;13.58;7.92;;;;;;;22.44;64.87;99816.36;1839079;77;21622;-65
2021/07/21 06:01:28;;;;;;;12.95;7.85;;;;;;;22.49;64.82;99814.35;1852118;76;21710;-71
2021/07/21 06:03:55;;;;;;;10.15;7.83;;;;;;;22.52;65.06;99811.77;1831462;75;21026;-77
2021/07/21 06:06:24;;;;;;;15.18;8.33;;;;;;;22.51;64.37;99810.96;1814060;77;21175;-67
2021/07/21 06:09:05;;;;;;;11.65;7.53;;;;;;;22.50;64.06;99807.15;1779386;77;21108;-69
2021/07/21 06:11:39;;;;;;;11.88;7.12;;;;;;;22.42;63.75;99809.02;1809935;77;21279;-72
2021/07/21 06:14:06;;;;;;;12.58;7.45;;;;;;;22.43;64.31;99808.00;1809463;77;21097;-73
2021/07/21 06:16:35;;;;;;;13.78;7.35;;;;;;;22.49;64.55;99808.17;1816963;77;21476;-71
2021/07/21 06:19:02;;;;;;;11.93;7.25;;;;;;;22.58;64.27;99801.54;1843020;75;21074;-74
2021/07/21 06:21:29;;;;;;;11.08;7.47;;;;;;;22.66;63.14;99800.44;1838878;77;21549;-83
2021/07/21 06:24:14;;;;;;;13.13;6.17;;;;;;;22.67;63.36;99797.55;1839266;76;21066;-74
2021/07/21 06:26:43;;;;;;;10.72;6.97;;;;;;;22.72;63.48;99803.61;1848166;77;21579;-71
2021/07/21 06:29:14;;;;;;;11.33;6.92;;;;;;;22.85;63.51;99798.65;1833019;76;21053;-63
2021/07/21 06:31:42;;;;;;;11.75;7.15;;;;;;;22.98;62.71;99798.55;1840749;75;21040;-75
2021/07/21 06:34:09;;;;;;;12.03;6.72;;;;;;;23.03;62.05;99798.71;1839339;75;21541;-69
2021/07/21 06:36:38;;;;;;;12.33;6.83;;;;;;;23.05;61.90;99798.00;1844093;75;21046;-71
2021/07/21 06:39:04;;;;;;;12.53;6.50;;;;;;;23.06;61.35;99792.94;1836791;75;21100;-68
2021/07/21 06:41:33;;;;;;;11.10;6.62;;;;;;;23.07;61.42;99785.73;1813590;77;21120;-65
2021/07/21 06:44:02;;;;;;;12.40;6.25;;;;;;;23.11;62.07;99786.39;1831292;76;21838;-62
2021/07/21 06:46:36;;;;;;;13.72;6.62;;;;;;;23.22;61.01;99790.74;1824394;75;21038;-69
2021/07/21 06:49:07;;;;;;;12.95;7.37;;;;;;;23.24;59.38;99781.44;1837253;75;21017;-69
2021/07/21 06:51:34;;;;;;;13.40;6.35;;;;;;;23.18;59.04;99787.18;1829455;77;21136;-72
2021/07/21 06:54:01;;;;;;;11.68;6.25;;;;;;;23.11;60.19;99792.30;1845012;75;21069;-69
2021/07/21 06:56:29;;;;;;;13.22;6.53;;;;;;;23.08;60.02;99793.56;1807274;75;21202;-68
2021/07/21 06:59:06;;;;;;;10.65;5.80;;;;;;;23.09;60.59;99784.46;1771176;79;21171;-70
2021/07/21 07:01:33;;;;;;;9.83;5.67;;;;;;;23.13;59.85;99787.52;1843432;77;21509;-67
2021/07/21 07:04:18;;;;;;;12.23;5.97;;;;;;;23.17;59.55;99788.21;1828953;76;21038;-66
2021/07/21 07:06:57;;;;;;;10.93;6.33;;;;;;;23.19;59.87;99800.88;1833539;77;21065;-71
2021/07/21 07:09:42;;;;;;;9.33;6.53;;;;;;;23.21;60.76;99800.66;1842949;75;23339;-68
2021/07/21 07:12:13;;;;;;;12.45;5.78;;;;;;;23.28;60.99;99801.95;1843790;75;21025;-66
2021/07/21 07:14:39;;;;;;;12.68;7.17;;;;;;;23.34;60.77;99802.42;1837267;75;21559;-68
2021/07/21 07:17:09;;;;;;;12.47;6.60;;;;;;;23.39;60.00;99803.10;1837659;77;21045;-66
2021/07/21 07:19:36;;;;;;;12.03;6.85;;;;;;;23.46;60.77;99797.14;1814028;77;21120;-68
2021/07/21 07:22:03;;;;;;;10.80;6.62;;;;;;;23.58;61.12;99793.20;1808234;77;21084;-64
2021/07/21 07:24:30;;;;;;;13.00;6.62;;;;;;;23.70;61.17;99790.06;1831234;76;22178;-68
2021/07/21 07:26:59;;;;;;;10.93;6.28;;;;;;;23.74;60.47;99788.59;1832858;77;21064;-76
2021/07/21 07:29:26;;;;;;;10.93;6.97;;;;;;;23.76;59.67;99791.86;1815203;77;21121;-63
2021/07/21 07:31:52;;;;;;;10.00;6.17;;;;;;;23.74;58.62;99784.02;1832109;77;21559;-72
2021/07/21 07:34:19;;;;;;;9.48;5.35;;;;;;;23.65;58.32;99789.38;1831049;76;21098;-71
2021/07/21 07:37:34;;;;;;;14.33;7.37;;;;;;;23.60;59.54;99785.73;1770169;78;21979;-72
2021/07/21 07:40:00;;;;;;;10.58;5.90;;;;;;;23.53;58.83;99793.86;1747051;80;21524;-72
2021/07/21 07:42:27;;;;;;;10.23;5.10;;;;;;;23.47;58.89;99784.00;1751250;80;21088;-73
2021/07/21 07:44:53;;;;;;;10.18;6.30;;;;;;;23.44;59.52;99792.52;1750132;81;21528;-73
2021/07/21 07:47:19;;;;;;;9.75;6.05;;;;;;;23.50;59.59;99788.42;1736050;81;20966;-72
2021/07/21 07:49:46;;;;;;;11.80;5.62;;;;;;;23.59;59.84;99791.64;1723117;81;22166;-72
2021/07/21 07:52:12;;;;;;;11.60;5.55;;;;;;;23.61;60.10;99794.91;1746435;80;21043;-71
2021/07/21 07:54:39;;;;;;;9.38;6.10;;;;;;;23.62;59.93;99795.72;1734188;81;21978;-73
2021/07/21 07:57:06;;;;;;;10.10;5.75;;;;;;;23.66;59.85;99795.59;1748016;81;21021;-71
2021/07/21 07:59:32;;;;;;;9.65;5.83;;;;;;;23.65;60.16;99797.44;1729024;81;21117;-73
2021/07/21 08:01:59;;;;;;;10.53;6.67;;;;;;;23.70;59.77;99791.41;1741427;80;21090;-74
2021/07/21 08:04:25;;;;;;;12.35;6.85;;;;;;;23.78;60.01;99792.45;1749555;81;21124;-75
2021/07/21 08:06:52;;;;;;;10.43;5.80;;;;;;;23.84;59.92;99792.94;1732727;80;21132;-75
2021/07/21 08:09:18;;;;;;;9.90;6.37;;;;;;;23.84;59.97;99790.25;1755713;78;21065;-74
2021/07/21 08:11:56;;;;;;;13.05;6.95;;;;;;;23.87;60.10;99801.05;1772038;80;21041;-74
2021/07/21 08:14:21;;;;;;;13.08;6.50;;;;;;;23.90;60.00;99798.73;1743995;80;21077;-73
2021/07/21 08:16:49;;;;;;;9.55;6.30;;;;;;;23.95;60.29;99793.23;1764048;80;21073;-74
2021/07/21 08:19:16;;;;;;;11.80;6.10;;;;;;;24.05;59.88;99797.55;1767700;80;21138;-71
2021/07/21 08:21:43;;;;;;;8.33;5.47;;;;;;;24.16;60.30;99798.64;1772983;80;20979;-73
2021/07/21 08:24:10;;;;;;;10.85;7.15;;;;;;;24.26;60.12;99801.09;1768078;80;21053;-73
2021/07/21 08:26:36;;;;;;;9.90;5.65;;;;;;;24.33;59.60;99805.58;1769516;80;21081;-73
2021/07/21 08:29:03;;;;;;;10.08;6.30;;;;;;;24.38;59.82;99815.12;1769735;80;21045;-71
2021/07/21 08:31:29;;;;;;;9.33;5.85;;;;;;;24.43;59.34;99806.66;1749442;80;21243;-74
2021/07/21 08:34:02;;;;;;;9.80;6.12;;;;;;;24.49;59.88;99808.95;1772796;80;21022;-74
2021/07/21 08:36:29;;;;;;;9.95;6.78;;;;;;;24.57;58.78;99808.66;1764971;80;21085;-71
2021/07/21 08:38:56;;;;;;;10.03;6.03;;;;;;;24.61;58.86;99803.63;1768679;80;21030;-74
2021/07/21 08:41:23;;;;;;;8.70;5.58;;;;;;;24.60;58.94;99804.70;1773805;80;21472;-74
2021/07/21 08:43:49;;;;;;;10.10;6.62;;;;;;;24.58;58.91;99798.20;1764684;80;21133;-73
2021/07/21 08:46:15;;;;;;;10.93;5.92;;;;;;;24.61;58.22;99798.26;1770123;80;21738;-74
2021/07/21 08:48:41;;;;;;;12.45;6.45;;;;;;;24.59;58.32;99799.83;1759147;80;21074;-75
2021/07/21 08:51:10;;;;;;;11.20;6.40;;;;;;;24.60;57.47;99808.73;1741953;80;21622;-72
2021/07/21 08:53:38;;;;;;;9.28;6.50;;;;;;;24.58;57.64;99803.59;1753658;80;21058;-71
2021/07/21 08:56:05;;;;;;;10.55;6.05;;;;;;;24.58;58.19;99799.55;1744880;80;21112;-73
2021/07/21 08:58:31;;;;;;;10.25;5.42;;;;;;;24.64;58.10;99801.30;1767853;80;21026;-74
2021/07/21 09:00:57;;;;;;;11.75;6.60;;;;;;;24.78;58.56;99805.14;1736263;80;21116;-74
2021/07/21 09:03:24;;;;;;;9.28;5.97;;;;;;;24.96;57.99;99804.25;1765381;80;21556;-72
2021/07/21 09:05:51;;;;;;;9.35;5.70;;;;;;;25.05;56.91;99794.80;1754890;80;21393;-73
2021/07/21 09:08:17;;;;;;;10.28;6.10;;;;;;;25.08;56.85;99797.53;1746057;80;21196;-73
2021/07/21 09:10:45;;;;;;;13.05;6.15;;;;;;;25.09;57.12;99799.99;1760587;80;20987;-73
2021/07/21 09:13:13;;;;;;;9.35;5.42;;;;;;;25.13;56.50;99797.66;1746090;81;21050;-74
2021/07/21 09:15:42;;;;;;;10.95;5.97;;;;;;;25.09;54.93;99805.38;1762488;79;21564;-72
2021/07/21 09:18:14;;;;;;;10.98;5.65;;;;;;;25.00;55.17;99807.59;1760248;80;21046;-74
2021/07/21 09:20:49;;;;;;;7.95;4.97;;;;;;;24.92;54.99;99805.77;1768663;80;21144;-74
2021/07/21 09:23:15;;;;;;;10.43;5.75;;;;;;;24.87;55.88;99809.16;1761365;80;21110;-74
2021/07/21 09:25:42;;;;;;;8.03;5.15;;;;;;;24.87;56.26;99815.88;1761471;80;21331;-74
2021/07/21 09:28:11;;;;;;;12.10;5.97;;;;;;;24.90;56.35;99815.42;1745783;80;21029;-74
2021/07/21 09:30:41;;;;;;;9.35;5.22;;;;;;;24.98;56.51;99815.59;1769085;80;21033;-74
2021/07/21 09:33:14;;;;;;;8.13;5.03;;;;;;;25.07;56.42;99804.80;1765530;80;21117;-73
2021/07/21 09:35:46;;;;;;;10.05;5.45;;;;;;;25.17;55.43;99802.87;1744402;80;21560;-74
2021/07/21 09:38:16;;;;;;;9.93;5.83;;;;;;;25.20;55.09;99802.39;1762053;80;21537;-75
2021/07/21 09:40:51;;;;;;;8.20;4.95;;;;;;;25.21;53.86;99794.62;1763316;80;21579;-73
2021/07/21 09:43:27;;;;;;;10.95;5.22;;;;;;;25.21;53.15;99798.66;1763447;80;21054;-73
2021/07/21 09:45:53;;;;;;;9.18;5.15;;;;;;;25.24;52.33;99796.03;1701513;82;21871;-72
2021/07/21 09:48:46;;;;;;;9.70;5.20;;;;;;;25.20;52.44;99803.23;1695190;83;21113;-71
2021/07/21 09:51:34;;;;;;;9.78;4.95;;;;;;;25.18;52.64;99801.30;1712913;82;21552;-73
2021/07/21 09:54:16;;;;;;;8.58;5.08;;;;;;;25.18;53.68;99790.53;1701611;83;21043;-73
2021/07/21 09:56:46;;;;;;;8.63;5.40;;;;;;;25.21;53.75;99790.05;1698419;83;21099;-73
2021/07/21 09:59:26;;;;;;;9.70;6.03;;;;;;;25.26;53.71;99791.23;1684746;83;21297;-74
2021/07/21 10:01:53;;;;;;;8.78;5.12;;;;;;;25.30;54.51;99787.87;1710202;82;22158;-75
2021/07/21 10:04:36;;;;;;;10.25;5.17;;;;;;;25.31;54.68;99788.15;1737110;82;21082;-75
2021/07/21 10:07:17;;;;;;;10.30;5.37;;;;;;;25.34;55.12;99788.22;1702123;83;21027;-73
2021/07/21 10:09:32;;;;;;;8.38;5.10;;;;;;;25.40;55.01;99788.10;1707559;80;20993;-71
2021/07/21 10:11:58;;;;;;;8.90;4.83;;;;;;;25.49;54.38;99787.21;1691543;81;21078;-71
2021/07/21 10:14:26;;;;;;;9.75;4.72;;;;;;;25.57;52.19;99780.63;1684208;81;21064;-68
2021/07/21 10:16:53;;;;;;;7.85;4.45;;;;;;;25.64;51.65;99785.38;1666597;83;21059;-69
2021/07/21 10:19:25;;;;;;;9.15;5.70;;;;;;;25.70;51.05;99781.72;1707090;83;20968;-70
2021/07/21 10:21:57;;;;;;;9.18;4.50;;;;;;;25.77;51.38;99785.13;1709409;83;21052;-70
2021/07/21 10:24:27;;;;;;;10.00;4.78;;;;;;;25.82;51.89;99789.77;1732138;82;21941;-75
2021/07/21 10:26:54;;;;;;;7.35;4.10;;;;;;;25.90;50.11;99790.75;1697954;83;21055;-77
2021/07/21 10:29:21;;;;;;;7.80;4.70;;;;;;;25.92;49.84;99783.78;1705734;83;21078;-72
2021/07/21 10:31:48;;;;;;;8.38;4.72;;;;;;;25.93;50.88;99785.43;1701170;83;21691;-76
2021/07/21 10:34:17;;;;;;;7.62;4.12;;;;;;;26.00;49.44;99777.23;1700353;83;21087;-75
2021/07/21 10:36:43;;;;;;;7.42;4.70;;;;;;;26.07;50.12;99780.61;1700689;83;21348;-74
2021/07/21 10:39:19;;;;;;;7.20;4.35;;;;;;;26.12;49.85;99776.66;1695051;83;21015;-76
2021/07/21 10:41:47;;;;;;;9.23;4.75;;;;;;;26.17;49.27;99779.45;1685033;83;21494;-76
2021/07/21 10:44:15;;;;;;;7.95;4.97;;;;;;;26.22;49.93;99783.59;1684275;83;21545;-76
2021/07/21 10:46:44;;;;;;;9.08;4.70;;;;;;;26.29;49.25;99776.20;1708018;83;21647;-76
2021/07/21 10:55:03;;;;;;;8.90;4.25;;;;;;;26.36;49.07;99779.25;1755518;80;21034;-76
2021/07/21 11:00:28;;;;;;;6.40;4.05;;;;;;;26.27;48.69;99768.86;1756858;80;21544;-74
2021/07/21 11:03:21;;;;;;;6.47;4.28;;;;;;;26.20;49.31;99774.13;1756703;80;22222;-77
2021/07/21 11:06:04;;;;;;;7.28;4.28;;;;;;;26.16;48.92;99777.83;1760140;80;21642;-75
2021/07/21 11:08:30;;;;;;;8.30;4.95;;;;;;;26.13;48.66;99775.08;1768848;80;21030;-76
2021/07/21 11:11:10;;;;;;;7.67;4.28;;;;;;;26.11;48.60;99769.65;1757583;80;20998;-74
2021/07/21 11:13:40;;;;;;;7.22;4.47;;;;;;;26.11;49.07;99780.44;1760963;80;21069;-77
2021/07/21 11:16:09;;;;;;;8.63;4.10;;;;;;;26.10;48.80;99774.20;1755757;80;21181;-76
2021/07/21 11:18:42;;;;;;;8.55;4.20;;;;;;;26.14;48.58;99779.92;1701378;80;21039;-76
2021/07/21 11:21:16;;;;;;;8.38;4.53;;;;;;;26.16;48.42;99774.30;1762437;80;21054;-77
2021/07/21 11:23:58;;;;;;;7.37;3.87;;;;;;;26.16;48.78;99779.69;1729455;82;21057;-77
2021/07/21 11:26:43;;;;;;;6.17;3.50;;;;;;;26.12;48.32;99777.47;1695941;83;21070;-71
2021/07/21 11:29:32;;;;;;;8.03;4.55;;;;;;;26.10;49.08;99787.68;1761181;80;21173;-75
2021/07/21 11:32:00;;;;;;;6.42;3.62;;;;;;;26.07;48.12;99780.06;1762582;80;21129;-76
2021/07/21 11:34:38;;;;;;;7.30;4.12;;;;;;;26.00;47.84;99787.48;1758146;80;21019;-72
2021/07/21 11:37:06;;;;;;;7.37;3.70;;;;;;;25.93;48.64;99797.56;1764482;80;21054;-77
2021/07/21 11:39:56;;;;;;;8.30;4.70;;;;;;;25.89;48.35;99791.83;1743453;80;21193;-76
2021/07/21 11:42:41;;;;;;;7.50;4.22;;;;;;;25.88;48.84;99789.38;1768999;80;21115;-77
2021/07/21 11:45:12;;;;;;;8.68;4.15;;;;;;;25.87;48.65;99802.04;1745843;80;20916;-75
2021/07/21 11:47:43;;;;;;;8.38;3.25;;;;;;;25.88;49.45;99797.45;1772226;80;20923;-75
2021/07/21 11:50:27;;;;;;;6.72;4.37;;;;;;;25.93;49.50;99794.33;1760345;80;21057;-77
2021/07/21 11:52:57;;;;;;;6.67;3.58;;;;;;;26.01;48.84;99789.13;1761554;80;21268;-76